Time;durP1;ratioP1;P1;durP2;ratioP2;P2;SDS_P1;SDS_P2;PMS_P1;PMS_P2;Temp;Humidity;BMP_temperature;BMP_pressure;BME280_temperature;BME280_humidity;BME280_pressure;Samples;Min_cycle;Max_cycle;Signal;HPM_P1;HPM_P2
2023/12/15 00:01:18;;;;;;;17.10;9.20;;;;;;;6.45;100.00;102658.84;6307635;22;20014;-93
2023/12/15 00:03:43;;;;;;;20.30;9.90;;;;;;;6.05;100.00;102588.34;6307468;22;20010;-93
2023/12/15 00:06:09;;;;;;;17.23;9.73;;;;;;;6.43;100.00;102661.41;6306805;22;20341;-92
2023/12/15 00:08:34;;;;;;;19.10;9.90;;;;;;;6.37;100.00;102655.78;6255780;22;20015;-93
2023/12/15 00:11:00;;;;;;;19.05;9.90;;;;;;;6.42;100.00;102671.78;6306975;22;20014;-92
2023/12/15 00:13:25;;;;;;;20.08;10.55;;;;;;;6.41;100.00;102672.63;6281327;22;20018;-92
2023/12/15 00:15:51;;;;;;;18.48;10.23;;;;;;;6.45;100.00;102680.75;6306878;22;20031;-93
2023/12/15 00:18:16;;;;;;;20.30;10.20;;;;;;;6.45;100.00;102682.47;6281448;22;20337;-93
2023/12/15 00:20:42;;;;;;;18.33;10.85;;;;;;;6.43;100.00;102684.13;6307043;22;20329;-93
2023/12/15 00:23:07;;;;;;;16.73;10.35;;;;;;;6.44;100.00;102685.94;6255973;22;20011;-93
2023/12/15 00:25:32;;;;;;;34.63;10.98;;;;;;;6.23;100.00;102652.38;6255825;22;20030;-93
2023/12/15 00:27:58;;;;;;;17.85;10.77;;;;;;;6.44;100.00;102697.31;6307157;22;20052;-92
2023/12/15 00:30:23;;;;;;;21.38;12.10;;;;;;;6.37;100.00;102679.41;6281349;22;20046;-93
2023/12/15 00:32:49;;;;;;;19.38;12.25;;;;;;;6.44;100.00;102688.56;6281282;22;20011;-92
2023/12/15 00:35:14;;;;;;;21.23;11.48;;;;;;;6.45;100.00;102682.47;6281230;22;20053;-93
2023/12/15 00:37:40;;;;;;;22.10;12.57;;;;;;;6.40;100.00;102678.69;6307053;22;20018;-93
2023/12/15 00:40:06;;;;;;;20.45;12.40;;;;;;;6.30;100.00;102666.75;6255527;22;20076;-92
2023/12/15 00:42:32;;;;;;;22.23;11.77;;;;;;;6.32;100.00;102658.97;6306677;22;20090;-93
2023/12/15 00:44:57;;;;;;;24.02;11.93;;;;;;;6.41;100.00;102678.75;6306650;22;20049;-93
2023/12/15 00:47:25;;;;;;;27.33;12.63;;;;;;;6.40;100.00;102697.06;6281093;22;20090;-92
2023/12/15 00:49:53;;;;;;;22.35;12.80;;;;;;;6.40;100.00;102697.97;6308448;22;20007;-93
2023/12/15 00:52:18;;;;;;;22.85;12.95;;;;;;;6.38;100.00;102691.75;6306816;22;20437;-92
2023/12/15 00:54:43;;;;;;;23.35;12.82;;;;;;;6.38;100.00;102683.88;6281180;22;20031;-92
2023/12/15 00:57:09;;;;;;;23.98;13.50;;;;;;;6.34;100.00;102683.56;6306986;22;20018;-92
2023/12/15 00:59:34;;;;;;;21.05;12.50;;;;;;;6.40;100.00;102687.47;6255359;22;20014;-92
2023/12/15 01:02:00;;;;;;;26.23;13.98;;;;;;;6.44;100.00;102689.44;6306867;22;20011;-92
2023/12/15 01:04:25;;;;;;;24.33;12.85;;;;;;;6.50;100.00;102702.03;6280879;22;20011;-93
2023/12/15 01:06:53;;;;;;;27.33;13.57;;;;;;;6.48;100.00;102708.91;6280746;22;20082;-93
2023/12/15 01:09:18;;;;;;;25.83;13.45;;;;;;;6.50;100.00;102717.78;6281149;22;20007;-93
2023/12/15 01:11:44;;;;;;;24.60;13.40;;;;;;;6.39;100.00;102697.91;6306362;22;20011;-91
2023/12/15 01:14:09;;;;;;;21.98;13.25;;;;;;;6.49;100.00;102714.25;6306690;22;20341;-92
2023/12/15 01:16:34;;;;;;;27.10;13.73;;;;;;;6.44;100.00;102706.94;6306661;22;20333;-92
2023/12/15 01:19:00;;;;;;;24.85;14.02;;;;;;;6.50;100.00;102709.91;6308176;22;20037;-92
2023/12/15 01:21:25;;;;;;;23.70;13.95;;;;;;;6.57;100.00;102733.06;6306721;22;20307;-92
2023/12/15 01:23:51;;;;;;;29.27;14.45;;;;;;;6.53;100.00;102716.22;6280735;22;20398;-92
2023/12/15 01:26:17;;;;;;;25.13;15.00;;;;;;;6.51;100.00;102714.34;6305976;22;20011;-92
2023/12/15 01:28:43;;;;;;;25.38;14.30;;;;;;;6.51;100.00;102723.13;6306148;22;20384;-92
2023/12/15 01:31:08;;;;;;;27.85;14.93;;;;;;;6.46;100.00;102716.69;6304513;22;20011;-92
2023/12/15 01:33:36;;;;;;;26.73;14.40;;;;;;;6.54;100.00;102732.88;6306658;22;20011;-92
2023/12/15 01:36:01;;;;;;;29.45;14.85;;;;;;;6.46;100.00;102721.94;6306476;22;20039;-93
2023/12/15 01:38:26;;;;;;;31.92;15.25;;;;;;;6.54;100.00;102732.88;6306481;22;20008;-93
2023/12/15 01:40:52;;;;;;;30.02;14.65;;;;;;;6.56;100.00;102739.16;6280677;22;20011;-93
2023/12/15 01:43:17;;;;;;;25.00;14.40;;;;;;;6.60;100.00;102745.50;6306579;22;20012;-93
2023/12/15 01:45:43;;;;;;;24.35;14.13;;;;;;;6.52;100.00;102724.94;6306372;22;20430;-93
2023/12/15 01:48:09;;;;;;;29.67;15.88;;;;;;;6.61;100.00;102747.28;6306255;22;20418;-92
2023/12/15 01:50:34;;;;;;;26.10;15.68;;;;;;;6.51;100.00;102725.75;6306652;22;20006;-92
2023/12/15 01:53:00;;;;;;;24.38;15.25;;;;;;;6.64;100.00;102748.38;6306258;22;20007;-92
2023/12/15 01:55:25;;;;;;;25.67;14.25;;;;;;;6.36;100.00;102698.59;6280277;22;20007;-92
2023/12/15 01:57:50;;;;;;;26.85;14.63;;;;;;;6.55;100.00;102731.16;6280746;22;20034;-92
2023/12/15 02:00:19;;;;;;;26.52;14.55;;;;;;;6.62;100.00;102744.75;6305910;22;20007;-93
2023/12/15 02:02:44;;;;;;;25.70;14.90;;;;;;;6.59;100.00;102741.94;6306418;22;20337;-92
2023/12/15 02:05:09;;;;;;;27.85;15.10;;;;;;;6.66;100.00;102759.88;6280674;22;20003;-93
2023/12/15 02:07:35;;;;;;;24.10;14.38;;;;;;;6.53;100.00;102742.50;6280665;22;20003;-92
2023/12/15 02:10:00;;;;;;;24.95;14.40;;;;;;;6.67;100.00;102769.56;6306162;22;20520;-92
2023/12/15 02:12:25;;;;;;;22.67;13.70;;;;;;;6.62;100.00;102760.50;6307805;22;20007;-92
2023/12/15 02:14:51;;;;;;;27.42;15.45;;;;;;;6.64;100.00;102758.88;6306202;22;20011;-92
2023/12/15 02:17:16;;;;;;;25.65;14.30;;;;;;;6.65;100.00;102749.28;6305908;22;20453;-92
2023/12/15 02:19:42;;;;;;;25.77;14.10;;;;;;;6.66;100.00;102758.97;6305605;22;20010;-92
2023/12/15 02:22:08;;;;;;;22.90;13.98;;;;;;;6.74;100.00;102771.72;6307349;22;20096;-92
2023/12/15 02:24:33;;;;;;;24.40;14.43;;;;;;;6.73;100.00;102775.19;6307217;22;20007;-93
2023/12/15 02:26:58;;;;;;;22.67;15.00;;;;;;;6.64;100.00;102752.75;6307726;22;20007;-92
2023/12/15 02:29:26;;;;;;;24.25;14.68;;;;;;;6.76;100.00;102785.84;6307983;22;20075;-92
2023/12/15 02:31:52;;;;;;;23.73;13.98;;;;;;;6.72;100.00;102776.00;6306042;22;20068;-92
2023/12/15 02:34:20;;;;;;;26.38;14.02;;;;;;;6.61;100.00;102758.69;6307348;22;20011;-92
2023/12/15 02:36:45;;;;;;;21.63;13.73;;;;;;;6.72;100.00;102780.31;6280884;22;20014;-92
2023/12/15 02:39:11;;;;;;;24.17;14.93;;;;;;;6.78;100.00;102796.47;6305956;22;20007;-93
2023/12/15 02:41:36;;;;;;;24.05;14.70;;;;;;;6.74;100.00;102798.00;6280101;22;20007;-92
2023/12/15 02:44:01;;;;;;;24.90;14.93;;;;;;;6.69;100.00;102786.31;6284562;22;20014;-92
2023/12/15 02:46:27;;;;;;;24.42;15.02;;;;;;;6.80;100.00;102797.44;6311161;22;20420;-93
2023/12/15 02:48:52;;;;;;;25.88;15.02;;;;;;;6.77;100.00;102795.56;6285312;22;20002;-93
2023/12/15 02:51:28;;;;;;;23.13;14.88;;;;;;;6.84;100.00;102806.41;6339001;22;20018;-93
2023/12/15 02:53:54;;;;;;;28.42;15.10;;;;;;;6.80;100.00;102810.56;6311521;22;20010;-93
2023/12/15 02:56:22;;;;;;;26.65;15.75;;;;;;;6.77;100.00;102802.53;6311551;22;20013;-92
2023/12/15 02:58:47;;;;;;;25.88;15.98;;;;;;;6.80;100.00;102812.28;6339356;22;20003;-92
2023/12/15 03:01:13;;;;;;;29.35;15.85;;;;;;;6.72;100.00;102810.16;6285111;22;20021;-91
2023/12/15 03:03:38;;;;;;;28.52;15.65;;;;;;;6.88;100.00;102826.78;6311618;22;20086;-92
2023/12/15 03:06:03;;;;;;;28.40;15.23;;;;;;;6.73;100.00;102800.53;6311634;22;20413;-92
2023/12/15 03:08:29;;;;;;;27.88;15.07;;;;;;;6.53;100.00;102766.13;6286116;22;20011;-92
2023/12/15 03:10:58;;;;;;;27.48;14.95;;;;;;;6.91;100.00;102832.22;6311298;22;20410;-91
2023/12/15 03:13:24;;;;;;;30.75;16.17;;;;;;;6.89;100.00;102837.38;6286367;22;20014;-92
2023/12/15 03:15:50;;;;;;;27.17;15.82;;;;;;;6.85;100.00;102826.59;6312485;22;20030;-91
2023/12/15 03:18:16;;;;;;;29.70;15.43;;;;;;;6.75;100.00;102807.69;6313061;22;20325;-92
2023/12/15 03:20:41;;;;;;;28.92;16.65;;;;;;;6.90;100.00;102833.06;6313565;22;20417;-92
2023/12/15 03:23:08;;;;;;;29.75;16.38;;;;;;;6.88;100.00;102832.03;6314008;22;20026;-92
2023/12/15 03:25:36;;;;;;;29.92;15.80;;;;;;;6.88;100.00;102838.19;6343593;22;20053;-92
2023/12/15 03:28:02;;;;;;;32.40;17.27;;;;;;;6.93;100.00;102862.13;6290071;22;20011;-91
2023/12/15 03:30:27;;;;;;;33.60;17.23;;;;;;;6.90;100.00;102854.97;6345213;22;20008;-91
2023/12/15 03:32:53;;;;;;;32.65;16.45;;;;;;;6.87;100.00;102854.78;6348761;22;20011;-92
2023/12/15 03:35:18;;;;;;;32.67;16.70;;;;;;;6.95;100.00;102869.28;6296864;22;20106;-92
2023/12/15 03:37:44;;;;;;;36.67;17.13;;;;;;;6.97;100.00;102883.41;6323827;22;20007;-91
2023/12/15 03:40:11;;;;;;;29.48;16.55;;;;;;;6.86;100.00;102863.50;6298993;22;20007;-92
2023/12/15 03:42:36;;;;;;;32.55;17.45;;;;;;;6.92;100.00;102862.94;6325260;22;20388;-91
2023/12/15 03:45:02;;;;;;;32.08;16.65;;;;;;;6.91;100.00;102876.91;6292897;22;20019;-91
2023/12/15 03:47:27;;;;;;;37.40;18.98;;;;;;;6.96;100.00;102878.97;6293609;22;20474;-91
2023/12/15 03:49:53;;;;;;;37.30;17.77;;;;;;;6.97;100.00;102879.88;6318625;22;20007;-91
2023/12/15 03:52:20;;;;;;;38.67;18.30;;;;;;;6.88;100.00;102858.31;6316535;22;20018;-91
2023/12/15 03:54:46;;;;;;;37.80;17.73;;;;;;;7.00;100.00;102875.69;6315232;22;20003;-91
2023/12/15 03:57:11;;;;;;;36.08;18.42;;;;;;;7.01;100.00;102890.66;6311313;22;20018;-91
2023/12/15 03:59:40;;;;;;;36.72;18.52;;;;;;;6.83;100.00;102854.53;6311592;22;20052;-92
2023/12/15 04:02:06;;;;;;;33.58;18.10;;;;;;;7.07;100.00;102895.38;6311725;22;20003;-92
2023/12/15 04:04:34;;;;;;;38.38;18.75;;;;;;;6.97;100.00;102871.97;6312900;22;20014;-92
2023/12/15 04:07:00;;;;;;;36.28;18.48;;;;;;;7.03;100.00;102886.41;6287450;22;20306;-92
2023/12/15 04:09:25;;;;;;;34.38;18.63;;;;;;;7.06;100.00;102893.53;6315911;22;20422;-92
2023/12/15 04:11:51;;;;;;;38.28;18.85;;;;;;;7.10;100.00;102898.16;6314282;22;20003;-91
2023/12/15 04:14:17;;;;;;;38.60;18.83;;;;;;;7.11;100.00;102904.31;6316290;22;20013;-91
2023/12/15 04:16:43;;;;;;;41.05;18.95;;;;;;;7.06;100.00;102895.25;6316504;22;20007;-92
2023/12/15 04:19:08;;;;;;;38.90;19.25;;;;;;;6.97;100.00;102872.88;6261990;22;20064;-91
2023/12/15 04:21:34;;;;;;;42.58;18.80;;;;;;;6.95;100.00;102882.41;6314902;22;20061;-91
2023/12/15 04:23:59;;;;;;;41.47;19.17;;;;;;;6.99;100.00;102888.78;6287634;22;20003;-91
2023/12/15 04:26:27;;;;;;;40.30;18.88;;;;;;;7.07;100.00;102908.53;6288583;22;20497;-91
2023/12/15 04:28:53;;;;;;;45.78;20.65;;;;;;;7.13;100.00;102916.75;6312035;22;20076;-91
2023/12/15 04:31:18;;;;;;;46.53;20.90;;;;;;;7.14;100.00;102922.91;6312023;22;20015;-91
2023/12/15 04:33:44;;;;;;;47.13;21.75;;;;;;;7.02;100.00;102903.00;6312146;22;20015;-91
2023/12/15 04:36:13;;;;;;;43.47;19.77;;;;;;;7.10;100.00;102924.44;6313778;22;20003;-91
2023/12/15 04:38:41;;;;;;;47.35;21.02;;;;;;;7.13;100.00;102929.91;6314832;22;20038;-91
2023/12/15 04:41:16;;;;;;;48.95;22.33;;;;;;;7.15;100.00;102932.59;6311194;22;20004;-92
2023/12/15 04:43:41;;;;;;;49.08;20.50;;;;;;;6.99;100.00;102904.53;6311441;22;20031;-90
2023/12/15 04:46:07;;;;;;;48.10;20.77;;;;;;;7.06;100.00;102919.81;6320261;22;20448;-91
2023/12/15 04:48:32;;;;;;;44.55;21.30;;;;;;;7.17;100.00;102923.09;6293537;22;20417;-90
2023/12/15 04:50:57;;;;;;;43.38;20.70;;;;;;;7.14;100.00;102920.28;6322302;22;20053;-90
2023/12/15 04:53:23;;;;;;;50.53;22.02;;;;;;;7.15;100.00;102933.53;6320576;22;20011;-90
2023/12/15 04:55:48;;;;;;;49.13;21.45;;;;;;;7.20;100.00;102939.97;6344074;22;20011;-90
2023/12/15 04:58:14;;;;;;;52.28;21.67;;;;;;;7.12;100.00;102928.09;6290924;22;20094;-90
2023/12/15 05:00:39;;;;;;;51.38;22.92;;;;;;;7.21;100.00;102951.38;6344941;22;20010;-92
2023/12/15 05:03:04;;;;;;;50.58;21.15;;;;;;;7.21;100.00;102954.91;6316414;22;20082;-91
2023/12/15 05:05:30;;;;;;;57.92;24.00;;;;;;;7.21;100.00;102946.13;6292061;22;20007;-91
2023/12/15 05:07:55;;;;;;;51.28;22.98;;;;;;;7.10;100.00;102924.44;6313159;22;20007;-91
2023/12/15 05:10:21;;;;;;;52.67;21.88;;;;;;;7.06;100.00;102916.28;6286794;22;20418;-91
2023/12/15 05:12:46;;;;;;;55.00;22.50;;;;;;;7.23;100.00;102948.00;6287809;22;20010;-91
2023/12/15 05:15:12;;;;;;;56.17;23.92;;;;;;;7.22;100.00;102948.81;6313518;22;20018;-91
2023/12/15 05:17:37;;;;;;;54.53;23.88;;;;;;;7.16;100.00;102943.22;6297482;22;20014;-92
2023/12/15 05:20:03;;;;;;;56.13;23.65;;;;;;;7.20;100.00;102952.22;6293357;22;20014;-91
2023/12/15 05:22:29;;;;;;;51.22;22.60;;;;;;;7.23;100.00;102952.34;6312720;22;20377;-91
2023/12/15 05:24:54;;;;;;;54.00;23.13;;;;;;;7.19;100.00;102950.38;6269028;22;20011;-91
2023/12/15 05:27:20;;;;;;;53.95;23.33;;;;;;;7.10;100.00;102939.31;6312009;22;20321;-91
2023/12/15 05:29:46;;;;;;;54.97;23.55;;;;;;;7.23;100.00;102962.88;6285807;22;20003;-91
2023/12/15 05:32:16;;;;;;;50.22;22.42;;;;;;;7.28;100.00;102978.13;6339036;22;20030;-91
2023/12/15 05:34:45;;;;;;;59.33;23.27;;;;;;;7.28;100.00;102978.13;6339205;22;20009;-91
2023/12/15 05:37:12;;;;;;;55.90;24.42;;;;;;;7.28;100.00;102979.84;6339051;22;20086;-92
2023/12/15 05:39:38;;;;;;;51.55;24.80;;;;;;;7.28;100.00;102980.75;6312168;22;20007;-91
2023/12/15 05:42:07;;;;;;;52.90;24.20;;;;;;;7.30;100.00;102987.81;6286000;22;20409;-91
2023/12/15 05:44:35;;;;;;;50.47;23.35;;;;;;;7.33;100.00;102998.53;6311189;22;20022;-91
2023/12/15 05:47:00;;;;;;;51.80;23.67;;;;;;;7.36;100.00;103003.94;6285972;22;20018;-92
2023/12/15 05:49:25;;;;;;;59.20;24.08;;;;;;;7.36;100.00;103007.47;6285780;22;20011;-92
2023/12/15 05:51:53;;;;;;;56.35;24.23;;;;;;;7.38;100.00;103008.50;6339067;22;20009;-92
2023/12/15 05:54:18;;;;;;;56.72;24.00;;;;;;;7.35;100.00;103008.31;6338861;22;20017;-91
2023/12/15 05:56:44;;;;;;;61.33;24.70;;;;;;;7.36;100.00;103002.22;6311649;22;20011;-91
2023/12/15 05:59:09;;;;;;;52.30;23.02;;;;;;;7.39;100.00;103001.50;6260127;22;20328;-93
2023/12/15 06:01:35;;;;;;;53.25;23.75;;;;;;;7.39;100.00;103005.03;6311563;22;20003;-91
2023/12/15 06:04:00;;;;;;;56.65;23.65;;;;;;;7.39;100.00;103004.13;6285600;22;20407;-91
2023/12/15 06:06:25;;;;;;;61.42;26.00;;;;;;;7.44;100.00;103008.84;6311253;22;20018;-92
2023/12/15 06:08:51;;;;;;;64.03;26.38;;;;;;;7.43;100.00;103008.75;6311479;22;20448;-92
2023/12/15 06:11:17;;;;;;;57.25;25.08;;;;;;;7.50;100.00;103016.19;6311228;22;20017;-92
2023/12/15 06:13:42;;;;;;;63.67;25.60;;;;;;;7.51;100.00;103018.00;6310874;22;20089;-92
2023/12/15 06:16:08;;;;;;;52.85;25.02;;;;;;;7.53;100.00;103021.63;6339018;22;20439;-92
2023/12/15 06:18:37;;;;;;;62.70;26.35;;;;;;;7.57;100.00;103020.97;6310486;22;20019;-93
2023/12/15 06:21:02;;;;;;;58.72;25.02;;;;;;;7.53;100.00;103006.72;6338586;22;20006;-93
2023/12/15 06:23:28;;;;;;;52.60;24.73;;;;;;;7.57;100.00;103020.06;6285374;22;20328;-92
2023/12/15 06:25:53;;;;;;;57.20;25.58;;;;;;;7.62;100.00;103023.88;6311229;22;20003;-91
2023/12/15 06:28:21;;;;;;;59.97;26.67;;;;;;;7.62;100.00;103030.03;6285508;22;20332;-92
2023/12/15 06:30:46;;;;;;;65.35;26.65;;;;;;;7.66;100.00;103029.41;6285690;22;20006;-92
2023/12/15 06:33:15;;;;;;;60.72;26.25;;;;;;;7.60;100.00;103025.53;6285505;22;20065;-92
2023/12/15 06:35:40;;;;;;;58.95;26.27;;;;;;;7.66;100.00;103042.56;6260532;22;20018;-92
2023/12/15 06:38:05;;;;;;;63.25;27.45;;;;;;;7.66;100.00;103045.19;6285033;22;20007;-92
2023/12/15 06:40:31;;;;;;;66.72;26.00;;;;;;;7.57;100.00;103033.22;6338742;22;20007;-92
2023/12/15 06:42:56;;;;;;;60.35;25.80;;;;;;;7.67;100.00;103054.91;6311410;22;20372;-92
2023/12/15 06:45:22;;;;;;;61.65;25.55;;;;;;;7.59;100.00;103031.59;6310836;22;20022;-92
2023/12/15 06:47:47;;;;;;;63.38;26.35;;;;;;;7.69;100.00;103047.09;6285486;22;20011;-92
2023/12/15 06:50:13;;;;;;;60.00;26.80;;;;;;;7.55;100.00;103021.72;6311253;22;20010;-92
2023/12/15 06:52:40;;;;;;;61.58;25.90;;;;;;;7.65;100.00;103046.00;6259353;22;20034;-92
2023/12/15 06:55:09;;;;;;;60.83;26.73;;;;;;;7.57;100.00;103034.13;6311116;22;20007;-93
2023/12/15 06:57:34;;;;;;;65.65;26.42;;;;;;;7.64;100.00;103057.34;6311218;22;20104;-93
2023/12/15 07:00:00;;;;;;;58.70;27.27;;;;;;;7.59;100.00;103050.03;6311276;22;20396;-91
2023/12/15 07:02:25;;;;;;;57.88;26.05;;;;;;;7.63;100.00;103059.91;6286369;22;20337;-91
2023/12/15 07:04:50;;;;;;;58.60;25.52;;;;;;;7.40;100.00;103030.50;6286609;22;20043;-91
2023/12/15 07:07:16;;;;;;;66.85;27.48;;;;;;;7.66;100.00;103082.03;6262475;22;20135;-91
2023/12/15 07:09:44;;;;;;;59.22;27.85;;;;;;;7.59;100.00;103068.44;6313786;22;20013;-91
2023/12/15 07:12:22;;;;;;;64.00;26.55;;;;;;;7.65;100.00;103089.84;6340984;22;20060;-91
2023/12/15 07:15:07;;;;;;;;;;;;;;;;;;;;;
2023/12/15 07:17:53;;;;;;;60.20;26.85;;;;;;;7.25;100.00;103020.00;6341481;22;20102;-91
2023/12/15 07:20:25;;;;;;;59.92;26.33;;;;;;;7.52;100.00;103072.44;6313842;22;20011;-91
2023/12/15 07:22:51;;;;;;;59.63;27.40;;;;;;;7.65;100.00;103095.09;6313666;22;20078;-92
2023/12/15 07:25:24;;;;;;;54.78;25.25;;;;;;;7.60;100.00;103091.31;6313320;22;20427;-90
2023/12/15 07:27:53;;;;;;;58.20;25.52;;;;;;;7.45;100.00;103058.03;6313368;22;20086;-91
2023/12/15 07:30:29;;;;;;;58.22;27.27;;;;;;;7.34;100.00;103045.03;6313292;22;20014;-90
2023/12/15 07:32:57;;;;;;;57.33;25.50;;;;;;;7.39;100.00;103060.28;6341136;22;20003;-91
2023/12/15 07:35:35;;;;;;;68.00;29.10;;;;;;;7.21;100.00;103025.91;6287821;22;20011;-91
2023/12/15 07:38:20;;;;;;;67.45;28.48;;;;;;;7.36;100.00;103051.28;6340998;22;20007;-89
2023/12/15 07:41:05;;;;;;;;;;;;;;;;;;;;;
2023/12/15 07:43:43;;;;;;;;;;;;;;;;;;;;;
2023/12/15 07:46:38;;;;;;;63.30;28.50;;;;;;;7.33;100.00;103072.16;6342471;22;20568;-91
2023/12/15 07:49:13;;;;;;;70.65;27.50;;;;;;;7.34;100.00;103066.09;6312790;22;20042;-92
2023/12/15 07:51:39;;;;;;;64.93;27.60;;;;;;;7.30;100.00;103053.56;6341205;22;20343;-92
2023/12/15 07:54:15;;;;;;;61.28;26.23;;;;;;;7.24;100.00;103048.84;6340814;22;20063;-91
2023/12/15 07:56:50;;;;;;;63.20;27.60;;;;;;;7.45;100.00;103093.91;6313140;22;20325;-91
2023/12/15 07:59:16;;;;;;;63.13;27.80;;;;;;;7.53;100.00;103111.06;6314062;22;20041;-91
2023/12/15 08:01:44;;;;;;;71.80;30.15;;;;;;;7.45;100.00;103093.91;6340775;22;20003;-91
2023/12/15 08:04:26;;;;;;;68.38;28.40;;;;;;;7.46;100.00;103101.91;6313369;22;20011;-91
2023/12/15 08:06:52;;;;;;;69.57;26.98;;;;;;;7.32;100.00;103072.97;6293009;22;20003;-91
2023/12/15 08:09:38;;;;;;;63.75;26.38;;;;;;;7.74;100.00;103149.16;6286354;22;20048;-91
2023/12/15 08:12:13;;;;;;;61.92;26.33;;;;;;;7.59;100.00;103124.59;6327750;22;20003;-89
2023/12/15 08:14:41;;;;;;;64.40;26.52;;;;;;;7.75;100.00;103161.53;6341108;22;20025;-91
2023/12/15 08:17:09;;;;;;;68.15;27.27;;;;;;;7.33;100.00;103087.94;6339317;22;20023;-89
2023/12/15 08:19:44;;;;;;;63.83;27.40;;;;;;;7.40;100.00;103105.88;6312191;22;20098;-91
2023/12/15 08:22:10;;;;;;;62.10;25.98;;;;;;;7.38;100.00;103112.78;6312137;22;20351;-92
2023/12/15 08:24:42;;;;;;;62.45;27.92;;;;;;;7.50;100.00;103143.38;6339384;22;20052;-92
2023/12/15 08:27:08;;;;;;;63.38;26.77;;;;;;;7.43;100.00;103121.88;6339151;22;20076;-90
2023/12/15 08:29:34;;;;;;;68.90;27.60;;;;;;;7.52;100.00;103136.47;6339992;22;20002;-90
2023/12/15 08:31:59;;;;;;;66.85;27.42;;;;;;;7.42;100.00;103117.44;6311311;22;20014;-88
2023/12/15 08:34:26;;;;;;;61.60;25.40;;;;;;;7.46;100.00;103132.56;6311977;22;20056;-91
2023/12/15 08:36:52;;;;;;;69.22;27.85;;;;;;;7.46;100.00;103136.13;6340759;22;20007;-91
2023/12/15 08:39:21;;;;;;;63.70;27.60;;;;;;;7.44;100.00;103142.09;6311513;22;20059;-90
2023/12/15 08:41:46;;;;;;;70.97;28.85;;;;;;;7.86;100.00;103201.63;6311697;22;20013;-90
2023/12/15 08:44:12;;;;;;;62.83;27.05;;;;;;;7.85;100.00;103207.72;6349428;22;20062;-89
2023/12/15 08:46:37;;;;;;;64.22;27.17;;;;;;;7.63;100.00;103175.69;6315353;22;19998;-91
2023/12/15 08:51:51;;;;;;;66.72;27.67;;;;;;;7.76;100.00;103209.81;6337827;22;20322;-90
2023/12/15 08:54:18;;;;;;;64.63;27.90;;;;;;;7.65;100.00;103200.34;6340171;22;20055;-92
2023/12/15 08:56:44;;;;;;;62.83;25.52;;;;;;;7.65;100.00;103189.81;6311898;22;20010;-91
2023/12/15 08:59:12;;;;;;;64.80;26.92;;;;;;;7.55;100.00;103179.56;6339183;22;20007;-92
2023/12/15 09:01:42;;;;;;;72.95;28.00;;;;;;;7.94;100.00;103241.59;6343605;22;19999;-93
2023/12/15 09:04:10;;;;;;;66.93;26.73;;;;;;;7.48;100.00;103168.66;6313773;22;20021;-94
2023/12/15 09:06:40;;;;;;;64.32;26.45;;;;;;;7.58;100.00;103179.75;6311568;22;20147;-94
2023/12/15 09:09:08;;;;;;;63.08;25.88;;;;;;;7.84;100.00;103226.06;6313396;22;20002;-93
2023/12/15 09:11:54;;;;;;;67.43;26.83;;;;;;;7.87;100.00;103223.59;6311441;22;20014;-90
2023/12/15 09:14:23;;;;;;;61.85;26.05;;;;;;;7.68;100.00;103187.38;6339051;22;20014;-91
2023/12/15 09:16:51;;;;;;;66.90;26.42;;;;;;;7.91;100.00;103229.13;6311570;22;20010;-91
2023/12/15 09:19:34;;;;;;;63.10;25.80;;;;;;;8.10;100.00;103260.13;6311691;22;20002;-91
2023/12/15 09:22:10;;;;;;;;;;;;;;;;;;;;;
2023/12/15 09:24:36;;;;;;;56.35;25.85;;;;;;;7.73;100.00;103200.00;6339408;22;20445;-90
2023/12/15 09:27:01;;;;;;;66.80;27.58;;;;;;;7.85;100.00;103225.25;6339038;22;20049;-89
2023/12/15 09:29:27;;;;;;;59.42;25.50;;;;;;;8.15;100.00;103277.09;6312068;22;20424;-88
2023/12/15 09:32:00;;;;;;;61.00;25.85;;;;;;;8.15;100.00;103278.84;6341357;22;20039;-90
2023/12/15 09:34:27;;;;;;;62.60;25.70;;;;;;;7.84;100.00;103226.97;6311851;22;20038;-93
2023/12/15 09:36:55;;;;;;;58.63;24.35;;;;;;;8.21;100.00;103289.72;6338680;22;20033;-92
2023/12/15 09:39:25;;;;;;;60.33;25.88;;;;;;;7.85;100.00;103220.00;6340251;22;20065;-92
2023/12/15 09:42:02;;;;;;;52.15;23.65;;;;;;;8.27;100.00;103306.81;6313533;22;20010;-91
2023/12/15 09:44:27;;;;;;;56.88;23.80;;;;;;;8.28;100.00;103313.88;6311227;22;20019;-91
2023/12/15 09:46:54;;;;;;;56.25;24.17;;;;;;;8.07;100.00;103274.84;6339872;22;20006;-94
2023/12/15 09:49:24;;;;;;;57.40;23.60;;;;;;;8.37;100.00;103325.81;6338926;22;20007;-93
2023/12/15 09:51:50;;;;;;;58.40;24.38;;;;;;;8.19;100.00;103300.19;6340225;22;20413;-92
2023/12/15 09:54:16;;;;;;;50.17;22.63;;;;;;;8.26;100.00;103323.44;6311534;22;20045;-91
2023/12/15 09:56:42;;;;;;;54.83;23.15;;;;;;;8.26;100.00;103319.88;6312270;22;20011;-89
2023/12/15 09:59:07;;;;;;;61.55;23.83;;;;;;;8.29;100.00;103339.41;6310619;22;20007;-91
2023/12/15 10:01:38;;;;;;;48.70;23.85;;;;;;;8.34;100.00;103347.59;6338238;22;20006;-93
2023/12/15 10:04:05;;;;;;;53.75;22.45;;;;;;;8.38;100.00;103343.44;6337700;22;20006;-94
2023/12/15 10:06:37;;;;;;;50.05;22.52;;;;;;;7.93;100.00;103272.28;6319500;22;20049;-95
2023/12/15 10:09:23;;;;;;;56.00;22.70;;;;;;;8.01;100.00;103289.44;6311605;22;20496;-94
2023/12/15 10:11:51;;;;;;;50.92;21.52;;;;;;;7.99;100.00;103288.44;6338758;22;20409;-94
2023/12/15 10:14:19;;;;;;;48.63;22.30;;;;;;;8.44;100.00;103362.28;6313983;22;19999;-94
2023/12/15 10:16:46;;;;;;;45.45;21.58;;;;;;;8.45;100.00;103374.63;6321544;22;20014;-93
2023/12/15 10:19:12;;;;;;;50.67;21.15;;;;;;;8.16;100.00;103321.06;6338724;22;20007;-94
2023/12/15 10:21:49;;;;;;;;;;;;;;;;;;;;;
2023/12/15 10:24:23;;;;;;;47.60;20.95;;;;;;;8.02;100.00;103300.88;6321801;22;20022;-93
2023/12/15 10:26:50;;;;;;;55.78;21.77;;;;;;;8.04;100.00;103308.03;6339339;22;20002;-94
2023/12/15 10:29:18;;;;;;;46.20;19.27;;;;;;;8.28;100.00;103352.50;6313826;22;20025;-94
2023/12/15 10:31:56;;;;;;;;;;;;;;;;;;;;;
2023/12/15 10:34:24;;;;;;;48.47;20.98;;;;;;;8.22;100.00;103342.50;6338851;22;20069;-94
2023/12/15 10:36:53;;;;;;;44.05;19.55;;;;;;;8.15;100.00;103334.13;6340428;22;19998;-94
2023/12/15 10:39:29;;;;;;;44.95;20.10;;;;;;;8.15;100.00;103334.13;6341091;22;20007;-94
2023/12/15 10:41:57;;;;;;;40.13;18.95;;;;;;;8.32;100.00;103362.41;6345710;22;19987;-92
2023/12/15 10:44:27;;;;;;;46.63;19.35;;;;;;;8.58;100.00;103405.25;6313228;22;20011;-93
2023/12/15 10:46:53;;;;;;;41.92;19.30;;;;;;;8.24;100.00;103350.50;6344079;22;20064;-94
2023/12/15 10:49:19;;;;;;;42.25;18.50;;;;;;;8.42;100.00;103385.88;6316767;22;20006;-93
2023/12/15 10:52:06;;;;;;;35.85;18.25;;;;;;;8.19;100.00;103352.84;6314551;22;20007;-94
2023/12/15 10:54:32;;;;;;;38.55;18.88;;;;;;;8.15;100.00;103344.66;6316345;22;20067;-94
2023/12/15 10:56:58;;;;;;;37.38;17.80;;;;;;;8.63;100.00;103435.44;6341121;22;20002;-94
2023/12/15 10:59:23;;;;;;;45.65;19.52;;;;;;;8.46;100.00;103414.22;6344004;22;20354;-93
2023/12/15 11:01:51;;;;;;;43.15;18.33;;;;;;;8.19;100.00;103360.75;6344271;22;20037;-93
2023/12/15 11:04:23;;;;;;;35.80;17.92;;;;;;;8.27;100.00;103383.19;6313419;22;20006;-93
2023/12/15 11:06:49;;;;;;;36.33;18.10;;;;;;;8.46;100.00;103427.41;6313372;22;20003;-93
2023/12/15 11:09:34;;;;;;;37.72;17.05;;;;;;;8.62;100.00;103463.50;6312992;22;20380;-93
2023/12/15 11:12:34;;;;;;;38.58;17.55;;;;;;;8.62;100.00;103455.59;6342574;22;20006;-92
2023/12/15 11:15:13;;;;;;;38.92;17.55;;;;;;;8.67;100.00;103459.41;6330296;22;20006;-93
2023/12/15 11:17:41;;;;;;;40.25;17.85;;;;;;;8.39;100.00;103412.03;6315107;22;20006;-94
2023/12/15 11:20:25;;;;;;;38.47;17.10;;;;;;;8.68;100.00;103449.78;6344847;22;20051;-94
2023/12/15 11:22:52;;;;;;;42.55;19.10;;;;;;;8.68;100.00;103457.69;6347265;22;20002;-94